Stockdale, Texas
Current Conditions -  °F | °C
As of 11:58 AM on Monday 26 Jan 2015 (Local Time) from KRND Reporting Station
Few Clouds Few Clouds  
Wind Chill: 65°   Ceiling: Unl
Heat Index: 65°   Visibility: 10mi
Dew Point: 36°   Wind: 7mph
Humidity: 33%   Direction: 250°WSW
Pressure: 30.27"   Gusts: NA
Location:  29.24°N, 97.96°W
Report Text: KRND 261758Z 25006KT 10SM FEW170 19/02 A3027 RMK AO2A SLP250 T01860021 10186 20047 50000
Loading
Personal Weather Stations






























Interactive Weather Map New forecast layout! Learn more

10-Day Weather Forecast

Advertisements
Track Severe Weather on mobile